»·PEaware :: N516DM KSAC-KHAF

N516DM :: KSAC-KHAF

FLIGHT INFORMATION

Flight Status: Arrived
Operator: Privately registered:
United States
More flights under this callsign
Pilot: Brett W. (430)
Aircraft: CESSNA 172 SKYHAWK
(C172)
More flights by this aircraft type
Origin: KSAC Sacramento Executive
United States
Destination: KHAF Half Moon Bay
United States
More flights between these airports :: More routes between these airports
Route: +SAC V334 SUNOL
File this flight plan on PilotEdge
Remarks: twitch.tv / bwflightsimulation
Altitude:
(Current/Filed)
6,500ft
Speed:
(Current/Filed)
130kts
Departed: 26-Aug-18 02:26 PM
Arrived: 26-Aug-18 03:27 PM
Distance/Time
Traveled:
76nm/1:01
Distance/Time
To Go:
Arrived

Flight Plot

Page will automatically refresh every two minutes.

Flight plan parsing failed; only flown route is shown


Map Options




Map Legend


Flown Route
Filed Route
Departure Airport
Arrival Airport
Navaid (VOR, NDB)
Fix

Horizontal Profiles

Position Reports

Time Latitude Longitude Heading Altitude Ground
Speed
26-Aug-18 14:04 38.515418 -121.498831 179 27ft 0kts
26-Aug-18 14:05 38.515418 -121.498831 179 27ft 0kts
26-Aug-18 14:06 38.515418 -121.498831 179 27ft 0kts
26-Aug-18 14:07 38.515418 -121.498831 179 27ft 0kts
26-Aug-18 14:08 38.515418 -121.498831 179 27ft 0kts
26-Aug-18 14:09 38.515418 -121.498831 179 27ft 0kts
26-Aug-18 14:10 38.515418 -121.498831 179 27ft 0kts
26-Aug-18 14:11 38.515418 -121.498831 179 27ft 0kts
26-Aug-18 14:12 38.515418 -121.498831 179 27ft 0kts
26-Aug-18 14:13 38.515418 -121.498831 179 27ft 0kts
26-Aug-18 14:14 38.515418 -121.498831 179 27ft 0kts
26-Aug-18 14:15 38.515418 -121.498831 179 27ft 0kts
26-Aug-18 14:16 38.515416 -121.498831 179 27ft 0kts
26-Aug-18 14:17 38.515415 -121.498831 179 27ft 0kts
26-Aug-18 14:18 38.515413 -121.498831 179 27ft 0kts
26-Aug-18 14:19 38.515412 -121.498831 179 27ft 0kts
26-Aug-18 14:20 38.515410 -121.498831 179 27ft 0kts
26-Aug-18 14:21 38.515409 -121.498831 179 27ft 0kts
26-Aug-18 14:22 38.514328 -121.497634 133 27ft 6kts
26-Aug-18 14:23 38.513439 -121.496449 195 27ft 4kts
26-Aug-18 14:24 38.515975 -121.493509 32 27ft 23kts
26-Aug-18 14:25 38.519154 -121.490171 105 27ft 0kts
26-Aug-18 14:26 38.519072 -121.489822 110 27ft 10kts
26-Aug-18 14:27 38.506564 -121.498894 209 394ft 83kts
26-Aug-18 14:28 38.487209 -121.512665 203 1471ft 80kts
26-Aug-18 14:29 38.469650 -121.518329 202 2296ft 82kts
26-Aug-18 14:30 38.455522 -121.540438 238 3409ft 76kts
26-Aug-18 14:31 38.439802 -121.553453 202 4077ft 89kts
26-Aug-18 14:32 38.408754 -121.562792 193 4923ft 106kts
26-Aug-18 14:33 38.384738 -121.570113 194 5492ft 105kts
26-Aug-18 14:34 38.356554 -121.578876 194 6165ft 102kts
26-Aug-18 14:35 38.329889 -121.586784 191 6682ft 105kts
26-Aug-18 14:36 38.297432 -121.596499 196 6742ft 130kts
26-Aug-18 14:37 38.260468 -121.608697 194 6615ft 144kts
26-Aug-18 14:38 38.219986 -121.621329 194 6495ft 150kts
26-Aug-18 14:39 38.182473 -121.632953 194 6495ft 128kts
26-Aug-18 14:40 38.147722 -121.643717 194 6510ft 132kts
26-Aug-18 14:41 38.112417 -121.654646 194 6495ft 126kts
26-Aug-18 14:42 38.078767 -121.665037 194 6504ft 122kts
26-Aug-18 14:43 38.043790 -121.675845 194 6515ft 139kts
26-Aug-18 14:44 38.007144 -121.687176 194 6492ft 128kts
26-Aug-18 14:45 37.973463 -121.697570 194 6520ft 122kts
26-Aug-18 14:46 37.939836 -121.707926 194 6530ft 128kts
26-Aug-18 14:47 37.903494 -121.719121 194 6530ft 141kts
26-Aug-18 14:48 37.866130 -121.730616 193 6501ft 136kts
26-Aug-18 14:49 37.828851 -121.742050 194 6508ft 142kts
26-Aug-18 14:50 37.790980 -121.753674 194 6501ft 140kts
26-Aug-18 14:51 37.753069 -121.765292 194 6491ft 144kts
26-Aug-18 14:52 37.713557 -121.777389 194 6059ft 144kts
26-Aug-18 14:53 37.673225 -121.789740 194 5596ft 155kts
26-Aug-18 14:54 37.634198 -121.801626 194 5035ft 137kts
26-Aug-18 14:55 37.605488 -121.816690 238 4608ft 133kts
26-Aug-18 14:56 37.599305 -121.859408 258 4501ft 115kts
26-Aug-18 14:57 37.594628 -121.894261 258 4517ft 110kts
26-Aug-18 14:58 37.589560 -121.932668 258 4525ft 112kts
26-Aug-18 14:59 37.583909 -121.975549 259 3976ft 137kts
26-Aug-18 15:00 37.577543 -122.023934 259 3533ft 134kts
26-Aug-18 15:01 37.566052 -122.061287 197 3549ft 114kts
26-Aug-18 15:02 37.535822 -122.068296 191 3550ft 107kts
26-Aug-18 15:03 37.504798 -122.077924 205 3564ft 120kts
26-Aug-18 15:04 37.473554 -122.094473 204 3567ft 122kts
26-Aug-18 15:05 37.441800 -122.111018 203 3566ft 127kts
26-Aug-18 15:06 37.408794 -122.128316 204 3537ft 129kts
26-Aug-18 15:07 37.372263 -122.133669 172 3520ft 139kts
26-Aug-18 15:08 37.339190 -122.111460 148 3512ft 132kts
26-Aug-18 15:09 37.305669 -122.108124 186 3747ft 120kts
26-Aug-18 15:10 37.292097 -122.133053 279 4262ft 105kts
26-Aug-18 15:11 37.295936 -122.168140 278 4725ft 96kts
26-Aug-18 15:12 37.284736 -122.194338 220 5133ft 102kts
26-Aug-18 15:13 37.257480 -122.221471 219 4791ft 140kts
26-Aug-18 15:14 37.226263 -122.252505 222 4391ft 143kts
26-Aug-18 15:15 37.224903 -122.293259 264 4418ft 128kts
26-Aug-18 15:16 37.198038 -122.323584 217 4193ft 141kts
26-Aug-18 15:17 37.173071 -122.360706 276 3578ft 147kts
26-Aug-18 15:18 37.205167 -122.387512 338 2889ft 157kts
26-Aug-18 15:19 37.244880 -122.404766 339 1852ft 162kts
26-Aug-18 15:20 37.279211 -122.419534 337 1542ft 116kts
26-Aug-18 15:21 37.306370 -122.431269 338 1441ft 120kts
26-Aug-18 15:22 37.337680 -122.444023 354 1388ft 118kts
26-Aug-18 15:23 37.370171 -122.443806 359 1401ft 119kts
26-Aug-18 15:24 37.405365 -122.443789 359 1398ft 130kts
26-Aug-18 15:25 37.441332 -122.447259 326 1404ft 129kts
26-Aug-18 15:26 37.473126 -122.467704 333 1417ft 113kts
26-Aug-18 15:27 37.499577 -122.485672 318 576ft 100kts
26-Aug-18 15:28 37.515618 -122.503862 315 70ft 39kts
26-Aug-18 15:29 37.519280 -122.505824 52 70ft 11kts
26-Aug-18 15:30 37.516598 -122.501784 124 70ft 21kts
26-Aug-18 15:31 37.515847 -122.499150 34 70ft 0kts
26-Aug-18 15:32 37.515847 -122.499150 34 70ft 0kts
26-Aug-18 15:33 37.515847 -122.499150 34 70ft 0kts
26-Aug-18 15:34 37.515847 -122.499150 34 70ft 0kts

Navigation Log

Ident Type
Flight plan parsing failed, navigation log unavailable